sensor_id;sensor_type;location;lat;lon;timestamp;P1;durP1;ratioP1;P2;durP2;ratioP2
2544;SDS011;36212;48.838;9.142;2023-07-24T00:02:06;9.60;;;8.43;;
2544;SDS011;36212;48.838;9.142;2023-07-24T00:04:38;9.70;;;7.67;;
2544;SDS011;36212;48.838;9.142;2023-07-24T00:07:10;10.27;;;7.60;;
2544;SDS011;36212;48.838;9.142;2023-07-24T00:09:42;8.27;;;7.40;;
2544;SDS011;36212;48.838;9.142;2023-07-24T00:12:14;12.23;;;7.90;;
2544;SDS011;36212;48.838;9.142;2023-07-24T00:14:46;9.67;;;8.63;;
2544;SDS011;36212;48.838;9.142;2023-07-24T00:17:19;8.83;;;7.90;;
2544;SDS011;36212;48.838;9.142;2023-07-24T00:19:51;11.10;;;8.80;;
2544;SDS011;36212;48.838;9.142;2023-07-24T00:22:23;8.13;;;7.33;;
2544;SDS011;36212;48.838;9.142;2023-07-24T00:24:56;9.07;;;7.93;;
2544;SDS011;36212;48.838;9.142;2023-07-24T00:27:28;8.53;;;7.80;;
2544;SDS011;36212;48.838;9.142;2023-07-24T00:30:00;9.07;;;7.50;;
2544;SDS011;36212;48.838;9.142;2023-07-24T00:32:33;8.43;;;7.63;;
2544;SDS011;36212;48.838;9.142;2023-07-24T00:35:05;9.57;;;8.50;;
2544;SDS011;36212;48.838;9.142;2023-07-24T00:37:38;9.47;;;8.57;;
2544;SDS011;36212;48.838;9.142;2023-07-24T00:40:11;9.17;;;8.20;;
2544;SDS011;36212;48.838;9.142;2023-07-24T00:42:47;9.90;;;8.90;;
2544;SDS011;36212;48.838;9.142;2023-07-24T00:45:19;8.70;;;7.80;;
2544;SDS011;36212;48.838;9.142;2023-07-24T00:47:54;10.53;;;7.93;;
2544;SDS011;36212;48.838;9.142;2023-07-24T00:50:26;8.97;;;8.17;;
2544;SDS011;36212;48.838;9.142;2023-07-24T00:53:00;8.33;;;7.53;;
2544;SDS011;36212;48.838;9.142;2023-07-24T00:55:34;9.07;;;8.20;;
2544;SDS011;36212;48.838;9.142;2023-07-24T00:58:06;9.33;;;8.53;;
2544;SDS011;36212;48.838;9.142;2023-07-24T01:00:40;8.97;;;8.17;;
2544;SDS011;36212;48.838;9.142;2023-07-24T01:03:13;8.37;;;7.57;;
2544;SDS011;36212;48.838;9.142;2023-07-24T01:05:45;10.00;;;9.10;;
2544;SDS011;36212;48.838;9.142;2023-07-24T01:08:17;9.40;;;8.13;;
2544;SDS011;36212;48.838;9.142;2023-07-24T01:10:49;8.60;;;7.80;;
2544;SDS011;36212;48.838;9.142;2023-07-24T01:13:22;8.93;;;7.90;;
2544;SDS011;36212;48.838;9.142;2023-07-24T01:16:00;9.33;;;8.33;;
2544;SDS011;36212;48.838;9.142;2023-07-24T01:18:44;12.83;;;7.90;;
2544;SDS011;36212;48.838;9.142;2023-07-24T01:21:20;8.30;;;7.50;;
2544;SDS011;36212;48.838;9.142;2023-07-24T01:27:32;8.67;;;7.87;;
2544;SDS011;36212;48.838;9.142;2023-07-24T01:30:05;9.30;;;8.40;;
2544;SDS011;36212;48.838;9.142;2023-07-24T01:32:38;9.50;;;8.13;;
2544;SDS011;36212;48.838;9.142;2023-07-24T01:35:11;8.40;;;7.60;;
2544;SDS011;36212;48.838;9.142;2023-07-24T01:37:43;7.90;;;7.20;;
2544;SDS011;36212;48.838;9.142;2023-07-24T01:40:18;9.30;;;8.30;;
2544;SDS011;36212;48.838;9.142;2023-07-24T01:42:51;9.53;;;8.60;;
2544;SDS011;36212;48.838;9.142;2023-07-24T01:45:23;7.80;;;7.10;;
2544;SDS011;36212;48.838;9.142;2023-07-24T01:47:56;9.33;;;8.40;;
2544;SDS011;36212;48.838;9.142;2023-07-24T01:50:29;10.07;;;8.83;;
2544;SDS011;36212;48.838;9.142;2023-07-24T01:53:02;8.50;;;7.60;;
2544;SDS011;36212;48.838;9.142;2023-07-24T01:55:34;9.10;;;8.30;;
2544;SDS011;36212;48.838;9.142;2023-07-24T01:58:06;10.10;;;8.60;;
2544;SDS011;36212;48.838;9.142;2023-07-24T02:00:38;8.27;;;7.53;;
2544;SDS011;36212;48.838;9.142;2023-07-24T02:03:11;9.20;;;8.37;;
2544;SDS011;36212;48.838;9.142;2023-07-24T02:05:48;8.70;;;7.80;;
2544;SDS011;36212;48.838;9.142;2023-07-24T02:08:21;7.77;;;7.07;;
2544;SDS011;36212;48.838;9.142;2023-07-24T02:10:53;9.03;;;8.00;;
2544;SDS011;36212;48.838;9.142;2023-07-24T02:13:25;8.10;;;7.30;;
2544;SDS011;36212;48.838;9.142;2023-07-24T02:15:57;8.03;;;7.30;;
2544;SDS011;36212;48.838;9.142;2023-07-24T02:18:30;7.47;;;6.77;;
2544;SDS011;36212;48.838;9.142;2023-07-24T02:21:02;7.70;;;7.00;;
2544;SDS011;36212;48.838;9.142;2023-07-24T02:23:35;9.07;;;8.10;;
2544;SDS011;36212;48.838;9.142;2023-07-24T02:26:07;7.97;;;7.17;;
2544;SDS011;36212;48.838;9.142;2023-07-24T02:28:39;8.57;;;7.63;;
2544;SDS011;36212;48.838;9.142;2023-07-24T02:31:11;9.40;;;8.43;;
2544;SDS011;36212;48.838;9.142;2023-07-24T02:33:45;8.40;;;7.60;;
2544;SDS011;36212;48.838;9.142;2023-07-24T02:36:17;8.37;;;7.50;;
2544;SDS011;36212;48.838;9.142;2023-07-24T02:38:49;8.57;;;7.80;;
2544;SDS011;36212;48.838;9.142;2023-07-24T02:41:22;7.77;;;7.00;;
2544;SDS011;36212;48.838;9.142;2023-07-24T02:43:54;8.67;;;7.87;;
2544;SDS011;36212;48.838;9.142;2023-07-24T02:46:26;9.47;;;8.57;;
2544;SDS011;36212;48.838;9.142;2023-07-24T02:49:00;8.33;;;7.60;;
2544;SDS011;36212;48.838;9.142;2023-07-24T02:51:33;8.30;;;7.50;;
2544;SDS011;36212;48.838;9.142;2023-07-24T02:54:04;8.73;;;7.80;;
2544;SDS011;36212;48.838;9.142;2023-07-24T02:56:37;8.67;;;7.77;;
2544;SDS011;36212;48.838;9.142;2023-07-24T02:59:11;9.10;;;8.20;;
2544;SDS011;36212;48.838;9.142;2023-07-24T03:01:43;7.93;;;7.27;;
2544;SDS011;36212;48.838;9.142;2023-07-24T03:04:15;8.53;;;7.63;;
2544;SDS011;36212;48.838;9.142;2023-07-24T03:06:48;8.40;;;7.60;;
2544;SDS011;36212;48.838;9.142;2023-07-24T03:09:20;8.70;;;7.90;;
2544;SDS011;36212;48.838;9.142;2023-07-24T03:11:52;9.00;;;8.10;;
2544;SDS011;36212;48.838;9.142;2023-07-24T03:14:24;8.30;;;7.50;;
2544;SDS011;36212;48.838;9.142;2023-07-24T03:16:57;7.70;;;7.00;;
2544;SDS011;36212;48.838;9.142;2023-07-24T03:19:33;8.00;;;7.27;;
2544;SDS011;36212;48.838;9.142;2023-07-24T03:22:05;8.17;;;7.37;;
2544;SDS011;36212;48.838;9.142;2023-07-24T03:24:37;10.87;;;7.77;;
2544;SDS011;36212;48.838;9.142;2023-07-24T03:27:09;8.20;;;7.40;;
2544;SDS011;36212;48.838;9.142;2023-07-24T03:29:42;9.03;;;8.17;;
2544;SDS011;36212;48.838;9.142;2023-07-24T03:32:14;8.10;;;7.40;;
2544;SDS011;36212;48.838;9.142;2023-07-24T03:34:46;9.33;;;8.53;;
2544;SDS011;36212;48.838;9.142;2023-07-24T03:37:18;8.40;;;7.60;;
2544;SDS011;36212;48.838;9.142;2023-07-24T03:39:51;9.00;;;8.10;;
2544;SDS011;36212;48.838;9.142;2023-07-24T03:42:27;8.77;;;7.87;;
2544;SDS011;36212;48.838;9.142;2023-07-24T03:45:02;8.30;;;7.50;;
2544;SDS011;36212;48.838;9.142;2023-07-24T03:47:35;7.97;;;7.23;;
2544;SDS011;36212;48.838;9.142;2023-07-24T03:50:07;8.50;;;7.43;;
2544;SDS011;36212;48.838;9.142;2023-07-24T03:52:40;9.33;;;8.50;;
2544;SDS011;36212;48.838;9.142;2023-07-24T03:55:12;8.10;;;7.30;;
2544;SDS011;36212;48.838;9.142;2023-07-24T03:57:44;9.17;;;8.33;;
2544;SDS011;36212;48.838;9.142;2023-07-24T04:00:16;7.73;;;7.03;;
2544;SDS011;36212;48.838;9.142;2023-07-24T04:02:50;8.63;;;7.73;;
2544;SDS011;36212;48.838;9.142;2023-07-24T04:05:22;9.27;;;8.47;;
2544;SDS011;36212;48.838;9.142;2023-07-24T04:07:54;10.20;;;7.87;;
2544;SDS011;36212;48.838;9.142;2023-07-24T04:10:26;8.10;;;7.40;;
2544;SDS011;36212;48.838;9.142;2023-07-24T04:13:00;9.80;;;8.90;;
2544;SDS011;36212;48.838;9.142;2023-07-24T04:15:33;8.93;;;7.83;;
2544;SDS011;36212;48.838;9.142;2023-07-24T04:18:05;13.60;;;8.37;;
2544;SDS011;36212;48.838;9.142;2023-07-24T04:20:37;8.77;;;7.87;;
2544;SDS011;36212;48.838;9.142;2023-07-24T04:23:09;8.37;;;7.67;;
2544;SDS011;36212;48.838;9.142;2023-07-24T04:25:42;8.53;;;7.73;;
2544;SDS011;36212;48.838;9.142;2023-07-24T04:28:14;11.40;;;8.83;;
2544;SDS011;36212;48.838;9.142;2023-07-24T04:30:46;9.67;;;7.33;;
2544;SDS011;36212;48.838;9.142;2023-07-24T04:33:18;9.70;;;8.73;;
2544;SDS011;36212;48.838;9.142;2023-07-24T04:35:50;9.57;;;8.60;;
2544;SDS011;36212;48.838;9.142;2023-07-24T04:38:24;8.00;;;7.30;;
2544;SDS011;36212;48.838;9.142;2023-07-24T04:40:56;8.37;;;7.67;;
2544;SDS011;36212;48.838;9.142;2023-07-24T04:43:32;9.30;;;8.40;;
2544;SDS011;36212;48.838;9.142;2023-07-24T04:46:04;9.83;;;8.33;;
2544;SDS011;36212;48.838;9.142;2023-07-24T04:48:36;9.23;;;8.40;;
2544;SDS011;36212;48.838;9.142;2023-07-24T04:51:09;9.30;;;8.27;;
2544;SDS011;36212;48.838;9.142;2023-07-24T04:53:41;8.37;;;7.50;;
2544;SDS011;36212;48.838;9.142;2023-07-24T04:56:13;9.13;;;7.60;;
2544;SDS011;36212;48.838;9.142;2023-07-24T04:58:45;8.60;;;7.90;;
2544;SDS011;36212;48.838;9.142;2023-07-24T05:01:17;7.97;;;7.17;;
2544;SDS011;36212;48.838;9.142;2023-07-24T05:03:49;8.73;;;7.93;;
2544;SDS011;36212;48.838;9.142;2023-07-24T05:06:21;8.73;;;7.93;;
2544;SDS011;36212;48.838;9.142;2023-07-24T05:08:55;8.77;;;7.97;;
2544;SDS011;36212;48.838;9.142;2023-07-24T05:11:27;10.77;;;9.17;;
2544;SDS011;36212;48.838;9.142;2023-07-24T05:13:59;10.90;;;9.60;;
2544;SDS011;36212;48.838;9.142;2023-07-24T05:16:31;10.00;;;8.50;;
2544;SDS011;36212;48.838;9.142;2023-07-24T05:19:04;11.17;;;9.00;;
2544;SDS011;36212;48.838;9.142;2023-07-24T05:21:36;8.00;;;7.17;;
2544;SDS011;36212;48.838;9.142;2023-07-24T05:24:08;9.40;;;8.50;;
2544;SDS011;36212;48.838;9.142;2023-07-24T05:26:40;9.97;;;8.60;;
2544;SDS011;36212;48.838;9.142;2023-07-24T05:29:12;9.60;;;8.70;;
2544;SDS011;36212;48.838;9.142;2023-07-24T05:31:44;9.00;;;8.10;;
2544;SDS011;36212;48.838;9.142;2023-07-24T05:34:17;9.97;;;9.07;;
2544;SDS011;36212;48.838;9.142;2023-07-24T05:36:49;9.80;;;8.80;;
2544;SDS011;36212;48.838;9.142;2023-07-24T05:39:21;9.40;;;8.47;;
2544;SDS011;36212;48.838;9.142;2023-07-24T05:41:53;9.00;;;8.20;;
2544;SDS011;36212;48.838;9.142;2023-07-24T05:44:25;11.80;;;9.40;;
2544;SDS011;36212;48.838;9.142;2023-07-24T05:46:57;10.57;;;8.73;;
2544;SDS011;36212;48.838;9.142;2023-07-24T05:49:29;10.77;;;9.60;;
2544;SDS011;36212;48.838;9.142;2023-07-24T05:52:01;10.73;;;9.13;;
2544;SDS011;36212;48.838;9.142;2023-07-24T05:54:34;14.00;;;9.50;;
2544;SDS011;36212;48.838;9.142;2023-07-24T05:57:06;12.37;;;9.83;;
2544;SDS011;36212;48.838;9.142;2023-07-24T05:59:38;9.67;;;8.67;;
2544;SDS011;36212;48.838;9.142;2023-07-24T06:02:10;10.57;;;9.10;;
2544;SDS011;36212;48.838;9.142;2023-07-24T06:04:42;9.20;;;8.20;;
2544;SDS011;36212;48.838;9.142;2023-07-24T06:07:15;10.80;;;9.20;;
2544;SDS011;36212;48.838;9.142;2023-07-24T06:09:47;9.50;;;8.70;;
2544;SDS011;36212;48.838;9.142;2023-07-24T06:12:19;9.43;;;8.57;;
2544;SDS011;36212;48.838;9.142;2023-07-24T06:14:53;12.37;;;8.90;;
2544;SDS011;36212;48.838;9.142;2023-07-24T06:17:26;9.07;;;8.13;;
2544;SDS011;36212;48.838;9.142;2023-07-24T06:19:59;8.70;;;8.00;;
2544;SDS011;36212;48.838;9.142;2023-07-24T06:22:32;9.90;;;9.00;;
2544;SDS011;36212;48.838;9.142;2023-07-24T06:25:08;10.50;;;8.80;;
2544;SDS011;36212;48.838;9.142;2023-07-24T06:27:42;9.07;;;8.17;;
2544;SDS011;36212;48.838;9.142;2023-07-24T06:30:14;9.80;;;8.90;;
2544;SDS011;36212;48.838;9.142;2023-07-24T06:32:47;9.17;;;8.27;;
2544;SDS011;36212;48.838;9.142;2023-07-24T06:35:21;9.70;;;8.70;;
2544;SDS011;36212;48.838;9.142;2023-07-24T06:37:53;9.17;;;8.03;;
2544;SDS011;36212;48.838;9.142;2023-07-24T06:40:25;10.50;;;9.20;;
2544;SDS011;36212;48.838;9.142;2023-07-24T06:42:57;9.67;;;8.77;;
2544;SDS011;36212;48.838;9.142;2023-07-24T06:45:29;9.60;;;8.70;;
2544;SDS011;36212;48.838;9.142;2023-07-24T06:48:02;8.40;;;7.60;;
2544;SDS011;36212;48.838;9.142;2023-07-24T06:50:34;9.07;;;8.17;;
2544;SDS011;36212;48.838;9.142;2023-07-24T06:53:07;7.90;;;7.20;;
2544;SDS011;36212;48.838;9.142;2023-07-24T06:55:42;9.40;;;7.87;;
2544;SDS011;36212;48.838;9.142;2023-07-24T06:58:15;8.90;;;8.00;;
2544;SDS011;36212;48.838;9.142;2023-07-24T07:00:51;9.07;;;8.27;;
2544;SDS011;36212;48.838;9.142;2023-07-24T07:03:28;9.47;;;8.63;;
2544;SDS011;36212;48.838;9.142;2023-07-24T07:06:05;9.60;;;8.60;;
2544;SDS011;36212;48.838;9.142;2023-07-24T07:08:43;9.83;;;8.40;;
2544;SDS011;36212;48.838;9.142;2023-07-24T07:11:17;9.47;;;8.57;;
2544;SDS011;36212;48.838;9.142;2023-07-24T07:13:50;9.47;;;8.47;;
2544;SDS011;36212;48.838;9.142;2023-07-24T07:16:24;10.00;;;8.97;;
2544;SDS011;36212;48.838;9.142;2023-07-24T07:18:56;11.07;;;8.00;;
2544;SDS011;36212;48.838;9.142;2023-07-24T07:21:29;9.67;;;8.67;;
2544;SDS011;36212;48.838;9.142;2023-07-24T07:24:07;8.33;;;7.23;;
2544;SDS011;36212;48.838;9.142;2023-07-24T07:26:39;8.60;;;7.80;;
2544;SDS011;36212;48.838;9.142;2023-07-24T07:29:12;8.70;;;7.90;;
2544;SDS011;36212;48.838;9.142;2023-07-24T07:31:47;9.03;;;8.13;;
2544;SDS011;36212;48.838;9.142;2023-07-24T07:34:20;8.90;;;8.00;;
2544;SDS011;36212;48.838;9.142;2023-07-24T07:36:52;9.23;;;8.33;;
2544;SDS011;36212;48.838;9.142;2023-07-24T07:39:24;10.30;;;8.70;;
2544;SDS011;36212;48.838;9.142;2023-07-24T07:41:57;9.40;;;8.50;;
2544;SDS011;36212;48.838;9.142;2023-07-24T07:44:47;9.10;;;8.20;;
2544;SDS011;36212;48.838;9.142;2023-07-24T07:47:20;9.83;;;8.13;;
2544;SDS011;36212;48.838;9.142;2023-07-24T07:49:52;9.87;;;8.97;;
2544;SDS011;36212;48.838;9.142;2023-07-24T07:52:24;9.30;;;8.17;;
2544;SDS011;36212;48.838;9.142;2023-07-24T07:54:56;8.27;;;7.47;;
2544;SDS011;36212;48.838;9.142;2023-07-24T07:57:31;8.67;;;7.87;;
2544;SDS011;36212;48.838;9.142;2023-07-24T08:00:05;8.10;;;7.40;;
2544;SDS011;36212;48.838;9.142;2023-07-24T08:02:38;8.77;;;7.90;;
2544;SDS011;36212;48.838;9.142;2023-07-24T08:05:13;8.90;;;8.10;;
2544;SDS011;36212;48.838;9.142;2023-07-24T08:07:52;9.73;;;8.83;;
2544;SDS011;36212;48.838;9.142;2023-07-24T08:10:24;9.03;;;8.13;;
2544;SDS011;36212;48.838;9.142;2023-07-24T08:12:56;9.80;;;8.13;;
2544;SDS011;36212;48.838;9.142;2023-07-24T08:15:28;10.07;;;9.07;;
2544;SDS011;36212;48.838;9.142;2023-07-24T08:18:05;9.30;;;8.30;;
2544;SDS011;36212;48.838;9.142;2023-07-24T08:20:38;10.23;;;8.47;;
2544;SDS011;36212;48.838;9.142;2023-07-24T08:23:11;9.87;;;7.80;;
2544;SDS011;36212;48.838;9.142;2023-07-24T08:25:55;8.70;;;7.90;;
2544;SDS011;36212;48.838;9.142;2023-07-24T08:28:28;9.57;;;8.60;;
2544;SDS011;36212;48.838;9.142;2023-07-24T08:31:00;10.40;;;9.30;;
2544;SDS011;36212;48.838;9.142;2023-07-24T08:33:38;9.33;;;8.23;;
2544;SDS011;36212;48.838;9.142;2023-07-24T08:36:10;9.40;;;8.60;;
2544;SDS011;36212;48.838;9.142;2023-07-24T08:38:45;12.83;;;9.00;;
2544;SDS011;36212;48.838;9.142;2023-07-24T08:41:19;9.10;;;8.20;;
2544;SDS011;36212;48.838;9.142;2023-07-24T08:43:51;10.27;;;9.33;;
2544;SDS011;36212;48.838;9.142;2023-07-24T08:46:25;9.80;;;9.00;;
2544;SDS011;36212;48.838;9.142;2023-07-24T08:48:59;13.83;;;9.80;;
2544;SDS011;36212;48.838;9.142;2023-07-24T08:51:31;10.90;;;9.70;;
2544;SDS011;36212;48.838;9.142;2023-07-24T08:54:05;10.87;;;9.40;;
2544;SDS011;36212;48.838;9.142;2023-07-24T08:56:38;10.37;;;9.47;;
2544;SDS011;36212;48.838;9.142;2023-07-24T08:59:17;11.07;;;9.47;;
2544;SDS011;36212;48.838;9.142;2023-07-24T09:01:49;13.47;;;10.40;;
2544;SDS011;36212;48.838;9.142;2023-07-24T09:04:22;9.67;;;8.73;;
2544;SDS011;36212;48.838;9.142;2023-07-24T09:06:56;10.27;;;9.27;;
2544;SDS011;36212;48.838;9.142;2023-07-24T09:09:30;10.43;;;8.47;;
2544;SDS011;36212;48.838;9.142;2023-07-24T09:12:03;9.80;;;8.80;;
2544;SDS011;36212;48.838;9.142;2023-07-24T09:14:35;10.30;;;9.30;;
2544;SDS011;36212;48.838;9.142;2023-07-24T09:17:10;9.63;;;8.70;;
2544;SDS011;36212;48.838;9.142;2023-07-24T09:19:42;8.97;;;8.13;;
2544;SDS011;36212;48.838;9.142;2023-07-24T09:22:15;8.50;;;7.60;;
2544;SDS011;36212;48.838;9.142;2023-07-24T09:24:55;8.83;;;7.93;;
2544;SDS011;36212;48.838;9.142;2023-07-24T09:27:28;10.73;;;7.93;;
2544;SDS011;36212;48.838;9.142;2023-07-24T09:30:11;9.37;;;7.97;;
2544;SDS011;36212;48.838;9.142;2023-07-24T09:32:51;8.77;;;7.87;;
2544;SDS011;36212;48.838;9.142;2023-07-24T09:35:25;8.27;;;7.47;;
2544;SDS011;36212;48.838;9.142;2023-07-24T09:38:08;12.10;;;6.97;;
2544;SDS011;36212;48.838;9.142;2023-07-24T09:40:44;9.33;;;7.97;;
2544;SDS011;36212;48.838;9.142;2023-07-24T09:43:26;8.23;;;7.40;;
2544;SDS011;36212;48.838;9.142;2023-07-24T09:46:11;7.97;;;7.23;;
2544;SDS011;36212;48.838;9.142;2023-07-24T09:48:44;8.83;;;7.90;;
2544;SDS011;36212;48.838;9.142;2023-07-24T09:51:36;14.13;;;8.37;;
2544;SDS011;36212;48.838;9.142;2023-07-24T09:54:16;10.00;;;9.17;;
2544;SDS011;36212;48.838;9.142;2023-07-24T09:57:02;8.90;;;8.10;;
2544;SDS011;36212;48.838;9.142;2023-07-24T09:59:51;11.30;;;8.27;;
2544;SDS011;36212;48.838;9.142;2023-07-24T10:02:26;8.67;;;7.83;;
2544;SDS011;36212;48.838;9.142;2023-07-24T10:05:00;8.10;;;7.30;;
2544;SDS011;36212;48.838;9.142;2023-07-24T10:07:33;8.97;;;8.20;;
2544;SDS011;36212;48.838;9.142;2023-07-24T10:10:05;7.73;;;7.03;;
2544;SDS011;36212;48.838;9.142;2023-07-24T10:12:39;8.80;;;7.53;;
2544;SDS011;36212;48.838;9.142;2023-07-24T10:15:12;18.00;;;8.23;;
2544;SDS011;36212;48.838;9.142;2023-07-24T10:17:45;8.93;;;7.10;;
2544;SDS011;36212;48.838;9.142;2023-07-24T10:20:18;10.10;;;7.20;;
2544;SDS011;36212;48.838;9.142;2023-07-24T10:22:51;6.03;;;5.50;;
2544;SDS011;36212;48.838;9.142;2023-07-24T10:25:33;7.17;;;6.47;;
2544;SDS011;36212;48.838;9.142;2023-07-24T10:28:15;7.00;;;6.30;;
2544;SDS011;36212;48.838;9.142;2023-07-24T10:31:02;6.93;;;6.23;;
2544;SDS011;36212;48.838;9.142;2023-07-24T10:33:50;7.23;;;6.63;;
2544;SDS011;36212;48.838;9.142;2023-07-24T10:36:23;6.70;;;6.20;;
2544;SDS011;36212;48.838;9.142;2023-07-24T10:39:12;7.30;;;6.70;;
2544;SDS011;36212;48.838;9.142;2023-07-24T10:41:54;7.70;;;6.93;;
2544;SDS011;36212;48.838;9.142;2023-07-24T10:44:38;6.73;;;6.13;;
2544;SDS011;36212;48.838;9.142;2023-07-24T10:47:10;7.93;;;7.20;;
2544;SDS011;36212;48.838;9.142;2023-07-24T10:49:48;7.80;;;6.90;;
2544;SDS011;36212;48.838;9.142;2023-07-24T10:52:27;7.30;;;6.40;;
2544;SDS011;36212;48.838;9.142;2023-07-24T10:55:00;7.70;;;7.00;;
2544;SDS011;36212;48.838;9.142;2023-07-24T10:57:34;8.90;;;6.80;;
2544;SDS011;36212;48.838;9.142;2023-07-24T11:00:06;8.60;;;6.90;;
2544;SDS011;36212;48.838;9.142;2023-07-24T11:02:39;7.50;;;6.77;;
2544;SDS011;36212;48.838;9.142;2023-07-24T11:05:12;7.03;;;6.43;;
2544;SDS011;36212;48.838;9.142;2023-07-24T11:07:46;8.03;;;7.20;;
2544;SDS011;36212;48.838;9.142;2023-07-24T11:10:20;8.10;;;7.30;;
2544;SDS011;36212;48.838;9.142;2023-07-24T11:12:53;8.43;;;7.23;;
2544;SDS011;36212;48.838;9.142;2023-07-24T11:15:25;8.40;;;6.70;;
2544;SDS011;36212;48.838;9.142;2023-07-24T11:17:58;8.20;;;7.50;;
2544;SDS011;36212;48.838;9.142;2023-07-24T11:20:32;7.87;;;7.17;;
2544;SDS011;36212;48.838;9.142;2023-07-24T11:23:13;7.70;;;7.10;;
2544;SDS011;36212;48.838;9.142;2023-07-24T11:25:46;7.80;;;7.10;;
2544;SDS011;36212;48.838;9.142;2023-07-24T11:28:23;9.43;;;7.70;;
2544;SDS011;36212;48.838;9.142;2023-07-24T11:31:01;8.30;;;7.60;;
2544;SDS011;36212;48.838;9.142;2023-07-24T11:33:34;7.73;;;7.03;;
2544;SDS011;36212;48.838;9.142;2023-07-24T11:36:08;7.33;;;6.77;;
2544;SDS011;36212;48.838;9.142;2023-07-24T11:38:42;8.67;;;7.80;;
2544;SDS011;36212;48.838;9.142;2023-07-24T11:41:17;9.07;;;7.77;;
2544;SDS011;36212;48.838;9.142;2023-07-24T11:43:50;12.20;;;7.50;;
2544;SDS011;36212;48.838;9.142;2023-07-24T11:46:26;7.60;;;6.80;;
2544;SDS011;36212;48.838;9.142;2023-07-24T11:49:02;8.67;;;7.23;;
2544;SDS011;36212;48.838;9.142;2023-07-24T11:51:36;6.70;;;6.20;;
2544;SDS011;36212;48.838;9.142;2023-07-24T11:54:11;6.23;;;5.73;;
2544;SDS011;36212;48.838;9.142;2023-07-24T11:56:44;7.20;;;6.60;;
2544;SDS011;36212;48.838;9.142;2023-07-24T11:59:16;7.43;;;6.73;;
2544;SDS011;36212;48.838;9.142;2023-07-24T12:01:49;7.17;;;6.20;;
2544;SDS011;36212;48.838;9.142;2023-07-24T12:04:21;6.93;;;6.33;;
2544;SDS011;36212;48.838;9.142;2023-07-24T12:06:54;7.17;;;6.57;;
2544;SDS011;36212;48.838;9.142;2023-07-24T12:09:29;7.47;;;6.47;;
2544;SDS011;36212;48.838;9.142;2023-07-24T12:12:03;7.07;;;6.47;;
2544;SDS011;36212;48.838;9.142;2023-07-24T12:14:38;8.33;;;7.63;;
2544;SDS011;36212;48.838;9.142;2023-07-24T12:17:10;7.50;;;6.80;;
2544;SDS011;36212;48.838;9.142;2023-07-24T12:19:49;7.10;;;6.60;;
2544;SDS011;36212;48.838;9.142;2023-07-24T12:22:21;7.20;;;6.50;;
2544;SDS011;36212;48.838;9.142;2023-07-24T12:24:54;8.00;;;7.30;;
2544;SDS011;36212;48.838;9.142;2023-07-24T12:27:26;7.47;;;6.87;;
2544;SDS011;36212;48.838;9.142;2023-07-24T12:29:59;8.40;;;7.70;;
2544;SDS011;36212;48.838;9.142;2023-07-24T12:32:33;6.90;;;6.30;;
2544;SDS011;36212;48.838;9.142;2023-07-24T12:35:06;7.03;;;6.40;;
2544;SDS011;36212;48.838;9.142;2023-07-24T12:37:45;7.77;;;6.70;;
2544;SDS011;36212;48.838;9.142;2023-07-24T12:40:18;6.40;;;5.90;;
2544;SDS011;36212;48.838;9.142;2023-07-24T12:42:50;7.40;;;6.80;;
2544;SDS011;36212;48.838;9.142;2023-07-24T12:45:22;6.20;;;5.80;;
2544;SDS011;36212;48.838;9.142;2023-07-24T12:47:55;8.50;;;6.50;;
2544;SDS011;36212;48.838;9.142;2023-07-24T12:50:27;7.20;;;6.60;;
2544;SDS011;36212;48.838;9.142;2023-07-24T12:53:00;7.13;;;6.43;;
2544;SDS011;36212;48.838;9.142;2023-07-24T12:55:37;6.57;;;6.07;;
2544;SDS011;36212;48.838;9.142;2023-07-24T12:58:10;6.70;;;6.17;;
2544;SDS011;36212;48.838;9.142;2023-07-24T13:00:42;7.07;;;6.47;;
2544;SDS011;36212;48.838;9.142;2023-07-24T13:03:14;7.57;;;6.87;;
2544;SDS011;36212;48.838;9.142;2023-07-24T13:05:48;7.70;;;7.10;;
2544;SDS011;36212;48.838;9.142;2023-07-24T13:08:21;7.20;;;6.60;;
2544;SDS011;36212;48.838;9.142;2023-07-24T13:10:55;7.23;;;6.60;;
2544;SDS011;36212;48.838;9.142;2023-07-24T13:13:27;7.00;;;6.30;;
2544;SDS011;36212;48.838;9.142;2023-07-24T13:16:01;6.93;;;6.33;;
2544;SDS011;36212;48.838;9.142;2023-07-24T13:18:34;7.23;;;6.33;;
2544;SDS011;36212;48.838;9.142;2023-07-24T13:21:06;6.50;;;6.00;;
2544;SDS011;36212;48.838;9.142;2023-07-24T13:23:40;6.83;;;6.27;;
2544;SDS011;36212;48.838;9.142;2023-07-24T13:26:14;6.40;;;5.90;;
2544;SDS011;36212;48.838;9.142;2023-07-24T13:28:47;7.30;;;6.70;;
2544;SDS011;36212;48.838;9.142;2023-07-24T13:31:20;6.77;;;6.17;;
2544;SDS011;36212;48.838;9.142;2023-07-24T13:33:59;7.03;;;6.33;;
2544;SDS011;36212;48.838;9.142;2023-07-24T13:36:32;6.87;;;6.37;;
2544;SDS011;36212;48.838;9.142;2023-07-24T13:39:04;7.87;;;7.17;;
2544;SDS011;36212;48.838;9.142;2023-07-24T13:41:38;7.07;;;6.53;;
2544;SDS011;36212;48.838;9.142;2023-07-24T13:44:10;6.63;;;6.03;;
2544;SDS011;36212;48.838;9.142;2023-07-24T13:46:43;6.37;;;5.87;;
2544;SDS011;36212;48.838;9.142;2023-07-24T13:49:15;6.10;;;5.60;;
2544;SDS011;36212;48.838;9.142;2023-07-24T13:51:48;7.60;;;6.90;;
2544;SDS011;36212;48.838;9.142;2023-07-24T13:54:20;7.70;;;7.00;;
2544;SDS011;36212;48.838;9.142;2023-07-24T13:56:52;7.27;;;6.23;;
2544;SDS011;36212;48.838;9.142;2023-07-24T13:59:24;7.50;;;6.53;;
2544;SDS011;36212;48.838;9.142;2023-07-24T14:01:57;6.07;;;5.60;;
2544;SDS011;36212;48.838;9.142;2023-07-24T14:04:29;5.90;;;5.30;;
2544;SDS011;36212;48.838;9.142;2023-07-24T14:07:01;5.30;;;4.90;;
2544;SDS011;36212;48.838;9.142;2023-07-24T14:09:34;5.40;;;5.00;;
2544;SDS011;36212;48.838;9.142;2023-07-24T14:12:07;5.13;;;4.73;;
2544;SDS011;36212;48.838;9.142;2023-07-24T14:14:39;5.13;;;4.73;;
2544;SDS011;36212;48.838;9.142;2023-07-24T14:17:12;5.53;;;5.13;;
2544;SDS011;36212;48.838;9.142;2023-07-24T14:19:46;4.67;;;4.37;;
2544;SDS011;36212;48.838;9.142;2023-07-24T14:22:18;5.30;;;4.90;;
2544;SDS011;36212;48.838;9.142;2023-07-24T14:24:51;5.83;;;5.33;;
2544;SDS011;36212;48.838;9.142;2023-07-24T14:27:24;5.37;;;4.97;;
2544;SDS011;36212;48.838;9.142;2023-07-24T14:29:56;5.27;;;4.87;;
2544;SDS011;36212;48.838;9.142;2023-07-24T14:32:28;5.20;;;4.90;;
2544;SDS011;36212;48.838;9.142;2023-07-24T14:35:01;4.63;;;4.23;;
2544;SDS011;36212;48.838;9.142;2023-07-24T14:37:34;4.97;;;4.57;;
2544;SDS011;36212;48.838;9.142;2023-07-24T14:40:07;4.73;;;4.33;;
2544;SDS011;36212;48.838;9.142;2023-07-24T14:42:42;5.27;;;4.87;;
2544;SDS011;36212;48.838;9.142;2023-07-24T14:45:14;4.70;;;4.40;;
2544;SDS011;36212;48.838;9.142;2023-07-24T14:47:46;4.67;;;4.37;;
2544;SDS011;36212;48.838;9.142;2023-07-24T14:50:21;4.70;;;4.37;;
2544;SDS011;36212;48.838;9.142;2023-07-24T14:52:54;5.00;;;4.60;;
2544;SDS011;36212;48.838;9.142;2023-07-24T14:55:26;4.70;;;4.40;;
2544;SDS011;36212;48.838;9.142;2023-07-24T14:57:58;4.37;;;4.03;;
2544;SDS011;36212;48.838;9.142;2023-07-24T15:00:31;4.20;;;3.90;;
2544;SDS011;36212;48.838;9.142;2023-07-24T15:03:04;4.90;;;4.10;;
2544;SDS011;36212;48.838;9.142;2023-07-24T15:05:36;4.43;;;4.03;;
2544;SDS011;36212;48.838;9.142;2023-07-24T15:08:08;4.53;;;4.23;;
2544;SDS011;36212;48.838;9.142;2023-07-24T15:10:41;3.93;;;3.63;;
2544;SDS011;36212;48.838;9.142;2023-07-24T15:13:13;4.47;;;4.07;;
2544;SDS011;36212;48.838;9.142;2023-07-24T15:15:46;4.90;;;4.50;;
2544;SDS011;36212;48.838;9.142;2023-07-24T15:18:18;5.10;;;4.73;;
2544;SDS011;36212;48.838;9.142;2023-07-24T15:20:50;4.53;;;4.10;;
2544;SDS011;36212;48.838;9.142;2023-07-24T15:23:25;4.93;;;4.40;;
2544;SDS011;36212;48.838;9.142;2023-07-24T15:25:58;5.80;;;5.00;;
2544;SDS011;36212;48.838;9.142;2023-07-24T15:28:30;5.13;;;4.70;;
2544;SDS011;36212;48.838;9.142;2023-07-24T15:31:03;6.53;;;4.43;;
2544;SDS011;36212;48.838;9.142;2023-07-24T15:33:39;4.40;;;4.10;;
2544;SDS011;36212;48.838;9.142;2023-07-24T15:36:11;4.40;;;4.10;;
2544;SDS011;36212;48.838;9.142;2023-07-24T15:38:44;4.33;;;4.03;;
2544;SDS011;36212;48.838;9.142;2023-07-24T15:41:16;6.20;;;4.47;;
2544;SDS011;36212;48.838;9.142;2023-07-24T15:43:49;4.07;;;3.77;;